createdAt,value
2022-08-17T00:00:05.671Z,95723.91
2022-08-17T00:02:36.781Z,95726.09
2022-08-17T00:05:10.809Z,95737.69
2022-08-17T00:07:38.309Z,95724.44
2022-08-17T00:10:06.658Z,95734.22
2022-08-17T00:12:44.350Z,95735.88
2022-08-17T00:15:13.748Z,95731.19
2022-08-17T00:17:43.135Z,95731.53
2022-08-17T00:20:13.355Z,95723.28
2022-08-17T00:22:42.533Z,95731.13
2022-08-17T00:25:14.143Z,95727.34
2022-08-17T00:27:42.174Z,95734.28
2022-08-17T00:30:12.331Z,95728.38
2022-08-17T00:33:14.414Z,95727.50
2022-08-17T00:35:30.660Z,95733.75
2022-08-17T00:37:58.228Z,95728.53
2022-08-17T00:40:27.159Z,95728.38
2022-08-17T00:43:14.060Z,95727.13
2022-08-17T00:45:42.141Z,95731.91
2022-08-17T00:48:29.109Z,95728.03
2022-08-17T00:51:02.403Z,95731.31
2022-08-17T00:53:32.073Z,95732.81
2022-08-17T00:56:02.572Z,95732.41
2022-08-17T00:58:36.545Z,95728.78
2022-08-17T01:01:06.381Z,95724.91
2022-08-17T01:03:36.663Z,95728.47
2022-08-17T01:06:07.095Z,95719.22
2022-08-17T01:08:36.744Z,95715.66
2022-08-17T01:11:05.378Z,95718.63
2022-08-17T01:13:40.657Z,95713.56
2022-08-17T01:16:19.623Z,95719.94
2022-08-17T01:18:52.076Z,95725.78
2022-08-17T01:21:25.443Z,95719.81
2022-08-17T01:23:54.311Z,95721.75
2022-08-17T01:26:22.801Z,95720.66
2022-08-17T01:28:54.687Z,95720.72
2022-08-17T01:31:25.152Z,95715.66
2022-08-17T01:33:53.271Z,95722.97
2022-08-17T01:36:20.878Z,95720.69
2022-08-17T01:38:48.403Z,95723.84
2022-08-17T01:41:17.865Z,95726.25
2022-08-17T01:43:51.859Z,95722.53
2022-08-17T01:46:23.796Z,95728.44
2022-08-17T01:48:51.474Z,95723.84
2022-08-17T01:51:20.119Z,95728.34
2022-08-17T01:53:51.484Z,95723.41
2022-08-17T01:56:23.450Z,95722.47
2022-08-17T01:58:51.339Z,95720.97
2022-08-17T02:01:22.212Z,95721.44
2022-08-17T02:03:56.327Z,95719.47
2022-08-17T02:06:28.942Z,95714.63
2022-08-17T02:09:02.340Z,95711.41
2022-08-17T02:11:34.762Z,95709.63
2022-08-17T02:14:04.118Z,95720.25
2022-08-17T02:16:37.027Z,95709.09
2022-08-17T02:19:07.910Z,95709.84
2022-08-17T02:21:35.624Z,95713.03
2022-08-17T02:24:04.151Z,95708.97
2022-08-17T02:26:33.121Z,95702.28
2022-08-17T02:29:00.630Z,95703.50
2022-08-17T02:31:28.224Z,95698.72
2022-08-17T02:33:56.638Z,95699.06
2022-08-17T02:36:32.239Z,95699.47
2022-08-17T02:39:00.704Z,95696.91
2022-08-17T02:41:28.333Z,95699.00
2022-08-17T02:43:57.165Z,95691.75
2022-08-17T02:46:24.685Z,95686.91
2022-08-17T02:48:52.184Z,95682.56
2022-08-17T02:51:19.667Z,95695.78
2022-08-17T02:53:47.661Z,95681.56
2022-08-17T02:56:15.354Z,95679.53
2022-08-17T02:58:42.857Z,95684.78
2022-08-17T03:01:12.638Z,95683.00
2022-08-17T03:03:41.112Z,95693.44
2022-08-17T03:06:09.521Z,95686.88
2022-08-17T03:08:37.379Z,95682.28
2022-08-17T03:11:05.056Z,95684.25
2022-08-17T03:13:32.581Z,95684.47
2022-08-17T03:16:00.183Z,95676.66
2022-08-17T03:18:29.045Z,95680.34
2022-08-17T03:20:58.868Z,95685.91
2022-08-17T03:23:28.055Z,95680.09
2022-08-17T03:25:57.653Z,95681.00
2022-08-17T03:28:25.873Z,95685.28
2022-08-17T03:30:53.727Z,95678.56
2022-08-17T03:33:21.625Z,95685.16
2022-08-17T03:35:50.929Z,95681.66
2022-08-17T03:38:18.724Z,95686.38
2022-08-17T03:40:58.967Z,95678.78
2022-08-17T03:43:29.918Z,95684.91
2022-08-17T03:46:28.248Z,95678.31
2022-08-17T03:49:20.436Z,95681.13
2022-08-17T03:52:07.018Z,95682.81
2022-08-17T03:54:52.409Z,95677.34
2022-08-17T03:57:20.125Z,95682.06
2022-08-17T03:59:47.889Z,95685.25
2022-08-17T04:02:19.713Z,95684.84
2022-08-17T04:04:50.578Z,95685.78
2022-08-17T04:07:19.782Z,95688.41
2022-08-17T04:09:47.364Z,95682.63
2022-08-17T04:12:15.873Z,95684.78
2022-08-17T04:14:53.209Z,95685.56
2022-08-17T04:17:23.492Z,95689.44
2022-08-17T04:19:51.034Z,95690.03
2022-08-17T04:22:31.347Z,95695.78
2022-08-17T04:25:05.829Z,95696.59
2022-08-17T04:27:33.408Z,95702.16
2022-08-17T04:30:00.977Z,95700.84
2022-08-17T04:33:04.468Z,95700.66
2022-08-17T04:35:20.107Z,95703.91
2022-08-17T04:37:49.394Z,95702.84
2022-08-17T04:40:34.972Z,95717.34
2022-08-17T04:43:04.347Z,95712.00
2022-08-17T04:45:32.614Z,95718.97
2022-08-17T04:48:00.818Z,95719.59
2022-08-17T04:50:28.413Z,95708.41
2022-08-17T04:52:57.710Z,95714.16
2022-08-17T04:55:25.400Z,95711.50
2022-08-17T04:57:52.989Z,95712.00
2022-08-17T05:00:20.725Z,95713.50
2022-08-17T05:02:50.736Z,95712.63
2022-08-17T05:05:20.786Z,95709.41
2022-08-17T05:07:48.615Z,95703.69
2022-08-17T05:10:17.749Z,95716.25
2022-08-17T05:12:45.255Z,95715.69
2022-08-17T05:15:15.884Z,95723.53
2022-08-17T05:17:43.564Z,95723.78
2022-08-17T05:20:12.125Z,95712.25
2022-08-17T05:22:49.186Z,95711.63
2022-08-17T05:25:19.765Z,95704.63
2022-08-17T05:45:42.781Z,95719.56
2022-08-17T05:48:13.698Z,95722.31
2022-08-17T05:50:50.462Z,95712.66
2022-08-17T05:53:25.319Z,95712.78
2022-08-17T05:56:04.258Z,95712.41
2022-08-17T05:58:38.812Z,95708.53
2022-08-17T06:01:12.424Z,95703.47
2022-08-17T06:03:48.795Z,95702.53
2022-08-17T06:06:33.056Z,95699.47
2022-08-17T06:09:18.733Z,95710.69
2022-08-17T06:11:58.634Z,95702.19
2022-08-17T06:14:40.168Z,95701.56
2022-08-17T06:17:14.732Z,95715.00
2022-08-17T06:19:46.669Z,95710.91
2022-08-17T06:22:17.651Z,95708.66
2022-08-17T06:24:49.951Z,95716.53
2022-08-17T06:27:24.391Z,95713.25
2022-08-17T06:29:57.681Z,95713.50
2022-08-17T06:32:26.986Z,95717.53
2022-08-17T06:34:55.237Z,95721.22
2022-08-17T06:37:54.785Z,95716.41
2022-08-17T06:40:40.059Z,95725.16
2022-08-17T06:43:24.685Z,95723.63
2022-08-17T06:45:58.572Z,95725.66
2022-08-17T06:48:36.321Z,95734.41
2022-08-17T06:51:09.264Z,95734.44
2022-08-17T06:53:43.088Z,95735.50
2022-08-17T06:56:13.868Z,95731.34
2022-08-17T06:58:44.265Z,95736.53
2022-08-17T07:01:16.089Z,95733.94
2022-08-17T07:03:54.547Z,95743.09
2022-08-17T07:06:25.979Z,95736.25
2022-08-17T07:08:59.264Z,95735.00
2022-08-17T07:11:31.341Z,95738.97
2022-08-17T07:14:15.308Z,95738.97
2022-08-17T07:16:49.703Z,95734.03
2022-08-17T07:19:22.712Z,95737.50
2022-08-17T07:21:57.988Z,95740.59
2022-08-17T07:24:37.869Z,95750.28
2022-08-17T07:27:13.534Z,95752.75
2022-08-17T07:29:49.384Z,95754.06
2022-08-17T07:32:23.154Z,95751.84
2022-08-17T07:35:12.904Z,95759.72
2022-08-17T07:37:45.867Z,95751.63
2022-08-17T07:40:26.963Z,95757.06
2022-08-17T07:43:23.401Z,95759.78
2022-08-17T07:46:14.553Z,95754.06
2022-08-17T07:48:44.327Z,95764.44
2022-08-17T07:51:23.024Z,95760.81
2022-08-17T07:53:50.611Z,95761.72
2022-08-17T07:56:38.548Z,95756.91
2022-08-17T07:59:13.007Z,95760.53
2022-08-17T08:01:43.099Z,95764.44
2022-08-17T08:04:59.348Z,95768.56
2022-08-17T08:07:26.903Z,95784.19
2022-08-17T08:10:03.909Z,95785.03
2022-08-17T08:12:34.589Z,95773.31
2022-08-17T08:15:09.655Z,95776.75
2022-08-17T08:17:47.451Z,95779.34
2022-08-17T08:20:47.701Z,95769.91
2022-08-17T08:23:15.406Z,95776.53
2022-08-17T08:25:53.602Z,95777.94
2022-08-17T08:28:30.868Z,95768.81
2022-08-17T08:31:08.611Z,95768.66
2022-08-17T08:33:49.796Z,95770.81
2022-08-17T08:37:09.715Z,95767.22
2022-08-17T08:39:35.253Z,95766.28
2022-08-17T08:42:10.197Z,95782.13
2022-08-17T08:45:00.473Z,95776.84
2022-08-17T08:47:50.128Z,95776.00
2022-08-17T08:50:37.395Z,95773.59
2022-08-17T08:53:21.254Z,95781.53
2022-08-17T08:55:55.744Z,95784.88
2022-08-17T08:58:41.977Z,95781.50
2022-08-17T09:01:19.210Z,95775.69
2022-08-17T09:04:12.029Z,95786.03
2022-08-17T09:06:56.443Z,95770.53
2022-08-17T09:09:36.462Z,95768.13
2022-08-17T09:12:13.191Z,95767.41
2022-08-17T09:14:48.715Z,95760.03
2022-08-17T09:17:20.213Z,95766.94
2022-08-17T09:19:52.764Z,95768.00
2022-08-17T09:22:31.276Z,95765.91
2022-08-17T09:25:08.909Z,95765.91
2022-08-17T09:27:49.586Z,95763.53
2022-08-17T09:30:18.265Z,95758.09
2022-08-17T09:32:52.044Z,95753.81
2022-08-17T09:35:22.837Z,95750.69
2022-08-17T09:38:02.723Z,95748.59
2022-08-17T09:40:35.462Z,95752.44
2022-08-17T09:43:13.070Z,95744.25
2022-08-17T09:45:46.092Z,95747.16
2022-08-17T09:48:19.406Z,95734.88
2022-08-17T09:51:06.035Z,95741.91
2022-08-17T09:53:36.395Z,95743.66
2022-08-17T09:56:30.053Z,95738.38
2022-08-17T09:59:23.366Z,95737.06
2022-08-17T10:02:02.916Z,95730.75
2022-08-17T10:04:48.216Z,95733.13
2022-08-17T10:07:21.215Z,95726.19
2022-08-17T10:10:00.722Z,95732.84
2022-08-17T10:12:39.929Z,95738.00
2022-08-17T10:15:25.805Z,95729.50
2022-08-17T10:18:34.890Z,95734.22
2022-08-17T10:21:27.696Z,95730.03
2022-08-17T10:24:23.070Z,95729.09
2022-08-17T10:26:57.125Z,95719.50
2022-08-17T10:29:40.774Z,95717.38
2022-08-17T10:32:30.042Z,95725.53
2022-08-17T10:35:12.835Z,95728.47
2022-08-17T10:38:07.315Z,95728.69
2022-08-17T10:40:45.288Z,95725.25
2022-08-17T10:43:24.724Z,95735.34
2022-08-17T10:46:10.593Z,95730.59
2022-08-17T10:49:23.046Z,95727.94
2022-08-17T10:51:53.421Z,95723.97
2022-08-17T10:54:45.610Z,95722.97
2022-08-17T10:57:37.265Z,95718.69
2022-08-17T11:00:10.159Z,95713.09
2022-08-17T11:02:49.347Z,95705.94
2022-08-17T11:05:53.815Z,95713.09
2022-08-17T11:08:47.848Z,95707.09
2022-08-17T11:11:35.891Z,95712.00
2022-08-17T11:14:21.383Z,95701.13
2022-08-17T11:17:07.383Z,95703.19
2022-08-17T11:19:52.300Z,95703.56
2022-08-17T11:22:40.406Z,95693.56
2022-08-17T11:25:16.206Z,95694.56
2022-08-17T11:27:44.941Z,95685.28
2022-08-17T11:30:14.864Z,95682.59
2022-08-17T11:32:47.577Z,95693.13
2022-08-17T11:35:31.840Z,95684.88
2022-08-17T11:38:16.831Z,95695.16
2022-08-17T11:41:11.677Z,95698.56
2022-08-17T11:44:05.373Z,95712.13
2022-08-17T11:47:08.534Z,95711.72
2022-08-17T11:50:15.107Z,95712.56
2022-08-17T11:52:46.714Z,95718.28
2022-08-17T11:55:47.523Z,95714.78
2022-08-17T11:58:37.342Z,95726.53
2022-08-17T12:01:06.858Z,95711.31
2022-08-17T12:03:54.038Z,95717.03
2022-08-17T12:06:31.186Z,95715.72
2022-08-17T12:09:06.636Z,95719.97
2022-08-17T12:11:55.688Z,95705.59
2022-08-17T12:14:51.663Z,95703.56
2022-08-17T12:17:52.057Z,95701.13
2022-08-17T12:20:16.201Z,95700.66
2022-08-17T12:22:54.729Z,95701.53
2022-08-17T12:25:31.356Z,95700.63
2022-08-17T12:28:06.808Z,95700.69
2022-08-17T12:30:37.348Z,95691.63
2022-08-17T12:33:12.594Z,95692.16
2022-08-17T12:35:40.124Z,95683.09
2022-08-17T12:38:32.516Z,95690.81
2022-08-17T12:40:59.724Z,95696.69
2022-08-17T12:43:31.100Z,95698.28
2022-08-17T12:46:13.292Z,95698.56
2022-08-17T12:48:59.104Z,95694.00
2022-08-17T12:51:27.549Z,95689.66
2022-08-17T12:53:55.971Z,95694.75
2022-08-17T12:56:23.712Z,95694.19
2022-08-17T12:58:55.459Z,95695.78
2022-08-17T13:01:27.028Z,95690.44
2022-08-17T13:03:59.646Z,95699.44
2022-08-17T13:06:30.125Z,95693.53
2022-08-17T13:08:58.059Z,95682.50
2022-08-17T13:11:26.247Z,95680.41
2022-08-17T13:13:56.128Z,95690.72
2022-08-17T13:16:28.003Z,95677.16
2022-08-17T13:19:05.809Z,95684.84
2022-08-17T13:21:34.301Z,95682.22
2022-08-17T13:24:05.848Z,95668.34
2022-08-17T13:26:36.609Z,95673.63
2022-08-17T13:29:07.803Z,95671.84
2022-08-17T13:31:52.434Z,95665.34
2022-08-17T13:35:11.813Z,95670.38
2022-08-17T13:37:32.608Z,95676.50
2022-08-17T13:40:05.935Z,95673.06
2022-08-17T13:42:51.985Z,95673.13
2022-08-17T13:45:53.260Z,95657.94
2022-08-17T13:48:25.692Z,95655.19
2022-08-17T13:51:29.780Z,95648.13
2022-08-17T13:54:01.848Z,95652.16
2022-08-17T13:56:39.677Z,95650.34
2022-08-17T13:59:12.277Z,95643.47
2022-08-17T14:01:42.315Z,95641.19
2022-08-17T14:04:14.201Z,95641.50
2022-08-17T14:06:53.441Z,95645.31
2022-08-17T14:09:24.241Z,95644.91
2022-08-17T14:11:52.638Z,95635.50
2022-08-17T14:14:20.180Z,95638.09
2022-08-17T14:16:48.385Z,95631.34
2022-08-17T14:19:17.582Z,95635.09
2022-08-17T14:21:47.266Z,95633.66
2022-08-17T14:24:23.046Z,95616.78
2022-08-17T14:26:52.859Z,95624.66
2022-08-17T14:29:20.991Z,95612.47
2022-08-17T14:31:54.606Z,95625.38
2022-08-17T14:34:24.630Z,95622.53
2022-08-17T14:36:52.521Z,95615.84
2022-08-17T14:39:20.565Z,95615.16
2022-08-17T14:41:48.196Z,95621.03
2022-08-17T14:44:15.931Z,95621.47
2022-08-17T14:46:46.258Z,95605.13
2022-08-17T14:49:15.522Z,95606.97
2022-08-17T14:51:44.780Z,95604.44
2022-08-17T14:54:32.867Z,95601.91
2022-08-17T14:57:24.767Z,95593.00
2022-08-17T14:59:48.825Z,95588.50
2022-08-17T15:02:19.469Z,95584.97
2022-08-17T15:04:47.767Z,95587.78
2022-08-17T15:07:16.688Z,95585.09
2022-08-17T15:09:44.531Z,95585.69
2022-08-17T15:12:17.804Z,95576.75
2022-08-17T15:14:45.300Z,95583.03
2022-08-17T15:17:12.865Z,95566.41
2022-08-17T15:19:40.552Z,95568.88
2022-08-17T15:22:16.751Z,95579.50
2022-08-17T15:24:45.566Z,95566.41
2022-08-17T15:27:13.119Z,95559.78
2022-08-17T15:29:40.640Z,95561.81
2022-08-17T15:32:08.230Z,95560.13
2022-08-17T15:34:36.396Z,95555.31
2022-08-17T15:37:04.011Z,95572.63
2022-08-17T15:39:31.520Z,95572.66
2022-08-17T15:42:04.604Z,95562.84
2022-08-17T15:44:35.118Z,95565.28
2022-08-17T15:47:02.805Z,95571.28
2022-08-17T15:49:30.294Z,95580.28
2022-08-17T15:51:57.784Z,95585.09
2022-08-17T15:54:25.287Z,95580.38
2022-08-17T15:56:59.236Z,95576.59
2022-08-17T15:59:30.890Z,95589.66
2022-08-17T16:03:14.239Z,95593.00
2022-08-17T16:04:47.145Z,95588.31
2022-08-17T16:07:17.024Z,95594.50
2022-08-17T16:09:44.937Z,95591.09
2022-08-17T16:12:13.967Z,95598.22
2022-08-17T16:14:42.826Z,95588.88
2022-08-17T16:17:38.325Z,95593.50
2022-08-17T16:19:57.860Z,95588.59
2022-08-17T16:22:32.280Z,95600.91
2022-08-17T16:25:00.372Z,95587.53
2022-08-17T16:27:27.844Z,95591.28
2022-08-17T16:29:56.932Z,95597.72
2022-08-17T16:32:31.937Z,95596.03
2022-08-17T16:35:02.877Z,95587.97
2022-08-17T16:37:31.083Z,95587.09
2022-08-17T16:40:01.895Z,95599.16
2022-08-17T16:42:32.671Z,95590.44
2022-08-17T16:45:07.193Z,95587.25
2022-08-17T16:47:34.691Z,95585.19
2022-08-17T16:50:03.695Z,95585.88
2022-08-17T16:52:33.418Z,95584.72
2022-08-17T16:55:01.923Z,95582.78
2022-08-17T16:57:30.400Z,95578.66
2022-08-17T16:59:58.387Z,95582.22
2022-08-17T17:02:31.216Z,95587.06
2022-08-17T17:05:07.440Z,95579.59
2022-08-17T17:07:55.407Z,95580.34
2022-08-17T17:10:27.252Z,95582.53
2022-08-17T17:13:01.724Z,95585.25
2022-08-17T17:15:45.133Z,95583.19
2022-08-17T17:18:15.308Z,95575.88
2022-08-17T17:20:48.555Z,95577.75
2022-08-17T17:23:36.895Z,95583.03
2022-08-17T17:26:15.799Z,95584.59
2022-08-17T17:28:59.572Z,95579.88
2022-08-17T17:31:34.149Z,95574.28
2022-08-17T17:34:05.403Z,95579.28
2022-08-17T17:36:40.213Z,95571.03
2022-08-17T17:39:12.982Z,95562.63
2022-08-17T17:41:47.092Z,95563.78
2022-08-17T17:44:19.893Z,95571.09
2022-08-17T17:46:54.027Z,95574.13
2022-08-17T17:49:23.228Z,95581.47
2022-08-17T17:52:10.042Z,95570.78
2022-08-17T17:54:52.308Z,95584.28
2022-08-17T17:57:26.245Z,95573.56
2022-08-17T18:00:01.427Z,95574.94
2022-08-17T18:02:52.183Z,95578.16
2022-08-17T18:05:48.233Z,95571.50
2022-08-17T18:08:32.165Z,95566.03
2022-08-17T18:11:10.405Z,95576.53
2022-08-17T18:14:03.419Z,95565.31
2022-08-17T18:16:32.963Z,95553.84
2022-08-17T18:19:01.378Z,95559.59
2022-08-17T18:21:37.688Z,95559.75
2022-08-17T18:24:10.422Z,95554.09
2022-08-17T18:26:44.657Z,95555.41
2022-08-17T18:29:31.061Z,95552.41
2022-08-17T18:32:31.076Z,95558.41
2022-08-17T18:35:02.250Z,95558.63
2022-08-17T18:37:42.544Z,95564.56
2022-08-17T18:40:36.038Z,95556.66
2022-08-17T18:43:08.503Z,95560.19
2022-08-17T18:45:40.752Z,95564.72
2022-08-17T18:48:21.553Z,95570.91
2022-08-17T18:50:52.246Z,95555.47
2022-08-17T18:53:30.397Z,95554.84
2022-08-17T18:56:28.286Z,95565.50
2022-08-17T18:59:06.041Z,95566.84
2022-08-17T19:01:53.421Z,95573.41
2022-08-17T19:04:34.104Z,95565.66
2022-08-17T19:07:13.636Z,95564.63
2022-08-17T19:09:47.931Z,95564.31
2022-08-17T19:12:27.271Z,95568.78
2022-08-17T19:14:57.819Z,95577.78
2022-08-17T19:17:32.690Z,95572.66
2022-08-17T19:20:06.339Z,95559.63
2022-08-17T19:22:44.707Z,95562.69
2022-08-17T19:25:16.938Z,95570.66
2022-08-17T19:27:51.353Z,95576.63
2022-08-17T19:30:25.872Z,95567.16
2022-08-17T19:32:53.918Z,95565.31
2022-08-17T19:35:25.694Z,95575.63
2022-08-17T19:38:03.963Z,95569.13
2022-08-17T19:40:52.713Z,95576.22
2022-08-17T19:43:27.873Z,95573.53
2022-08-17T19:46:03.791Z,95562.66
2022-08-17T19:48:42.715Z,95557.47
2022-08-17T19:51:15.422Z,95552.84
2022-08-17T19:54:05.433Z,95552.88
2022-08-17T19:56:45.400Z,95558.59
2022-08-17T19:59:22.152Z,95556.69
2022-08-17T20:01:53.732Z,95565.91
2022-08-17T20:04:36.536Z,95572.44
2022-08-17T20:07:07.914Z,95578.69
2022-08-17T20:09:38.595Z,95583.88
2022-08-17T20:12:11.524Z,95594.97
2022-08-17T20:14:55.686Z,95597.94
2022-08-17T20:17:26.024Z,95590.56
2022-08-17T20:20:02.514Z,95597.06
2022-08-17T20:22:46.740Z,95592.69
2022-08-17T20:25:29.854Z,95601.19
2022-08-17T20:28:06.851Z,95600.09
2022-08-17T20:30:39.465Z,95601.16
2022-08-17T20:33:13.101Z,95600.09
2022-08-17T20:35:41.321Z,95597.88
2022-08-17T20:38:11.524Z,95610.38
2022-08-17T20:40:41.068Z,95610.91
2022-08-17T20:43:46.730Z,95614.75
2022-08-17T20:46:24.690Z,95614.19
2022-08-17T20:48:55.443Z,95609.84
2022-08-17T20:51:28.073Z,95607.66
2022-08-17T20:54:09.027Z,95611.97
2022-08-17T20:56:54.910Z,95614.34
2022-08-17T20:59:56.277Z,95620.31
2022-08-17T21:02:26.433Z,95611.97
2022-08-17T21:05:17.350Z,95620.53
2022-08-17T21:07:58.804Z,95607.63
2022-08-17T21:10:38.309Z,95604.09
2022-08-17T21:13:28.270Z,95606.59
2022-08-17T21:16:01.881Z,95601.38
2022-08-17T21:18:38.550Z,95593.19
2022-08-17T21:21:20.433Z,95590.03
2022-08-17T21:24:08.972Z,95586.09
2022-08-17T21:26:51.102Z,95575.00
2022-08-17T21:29:30.906Z,95580.19
2022-08-17T21:32:24.736Z,95575.63
2022-08-17T21:35:27.229Z,95571.25
2022-08-17T21:37:59.572Z,95565.56
2022-08-17T21:40:29.354Z,95562.56
2022-08-17T21:43:00.189Z,95564.25
2022-08-17T21:45:35.480Z,95563.91
2022-08-17T21:48:19.691Z,95571.84
2022-08-17T21:50:58.253Z,95562.59
2022-08-17T21:53:33.270Z,95556.09
2022-08-17T21:56:01.598Z,95551.72
2022-08-17T21:58:32.199Z,95554.13
2022-08-17T22:01:23.976Z,95556.03
2022-08-17T22:03:59.819Z,95555.81
2022-08-17T22:06:30.228Z,95562.00
2022-08-17T22:09:04.519Z,95560.50
2022-08-17T22:11:33.091Z,95559.16
2022-08-17T22:14:05.890Z,95566.00
2022-08-17T22:16:33.828Z,95572.28
2022-08-17T22:19:02.779Z,95570.97
2022-08-17T22:21:30.311Z,95572.84
2022-08-17T22:24:04.859Z,95569.06
2022-08-17T22:26:59.403Z,95561.22
2022-08-17T22:29:52.894Z,95566.66
2022-08-17T22:32:38.370Z,95567.56
2022-08-17T22:35:39.780Z,95565.13
2022-08-17T22:38:30.873Z,95564.72
2022-08-17T22:41:31.884Z,95569.59
2022-08-17T22:44:02.316Z,95568.50
2022-08-17T22:46:30.508Z,95563.59
2022-08-17T22:49:00.314Z,95568.81
2022-08-17T22:51:31.881Z,95563.66
2022-08-17T22:54:19.548Z,95562.06
2022-08-17T22:57:18.927Z,95558.28
2022-08-17T22:59:49.369Z,95562.34
2022-08-17T23:02:23.506Z,95565.84
2022-08-17T23:04:54.230Z,95552.84
2022-08-17T23:07:23.083Z,95558.88
2022-08-17T23:09:52.664Z,95558.31
2022-08-17T23:12:26.231Z,95549.06
2022-08-17T23:14:58.409Z,95559.41
2022-08-17T23:17:26.000Z,95567.00
2022-08-17T23:19:54.727Z,95573.19
2022-08-17T23:22:25.236Z,95570.56
2022-08-17T23:24:52.826Z,95575.16
2022-08-17T23:27:22.088Z,95590.34
2022-08-17T23:29:50.419Z,95592.81
2022-08-17T23:32:19.091Z,95595.22
2022-08-17T23:34:48.001Z,95600.94
2022-08-17T23:37:16.717Z,95589.16
2022-08-17T23:39:46.283Z,95586.00
2022-08-17T23:42:21.553Z,95602.59
2022-08-17T23:44:50.191Z,95609.38
2022-08-17T23:47:17.895Z,95598.97
2022-08-17T23:49:45.621Z,95611.94
2022-08-17T23:52:16.526Z,95605.44
2022-08-17T23:54:47.793Z,95616.38
2022-08-17T23:57:19.102Z,95622.66
2022-08-17T23:59:46.946Z,95620.78
